Estación Meteorológica Peña el Pijo (Robertgarden) [ 01/30/23 14:33:19 CET ]

Fecha Hora Presion(HPa) Temp (°C) Humedad % Rocio (°C) Viento ( m/s) Direccion Lluvia 1Hora(mm) Lluvia 24H(mm) LLuvia Total(mm)
2010-Sep-10 01:01:17 1018.000 10.8 65 4.5         156.43
2010-Sep-10 02:01:13 1017.600 10.0 69 4.6         156.43
2010-Sep-10 03:01:13 1017.200 9.5 69 4.1         156.43
2010-Sep-10 04:01:18 1017.000 8.9 70 3.7         156.43
2010-Sep-10 05:01:13 1017.000 8.3 73 3.7         156.43
2010-Sep-10 06:01:16 1016.800 7.4 77 3.6         156.43
2010-Sep-10 07:01:17 1017.000 6.9 80 3.7         156.43
2010-Sep-10 08:01:14 1017.000 6.6 82 3.7         156.43
2010-Sep-10 09:01:12 1017.500 9.3 82 6.3         156.43
2010-Sep-10 10:01:13 1017.100 17.6 56 8.7         156.43
2010-Sep-10 11:01:15 1017.200 23.3 43 10.0         156.43
2010-Sep-10 12:01:16 1017.200 25.4 35 8.7         156.43
2010-Sep-10 13:01:15 1016.500 29.0 28 8.5         156.43
2010-Sep-10 14:01:15 1016.200 28.9 27 7.8         156.43
2010-Sep-10 15:01:16 1015.600 30.1 25 7.7         156.43
2010-Sep-10 16:01:13 1014.800 31.1 24 7.9         156.43
2010-Sep-10 17:01:27 1014.400 31.8 22 7.3         156.43
2010-Sep-10 18:01:30 1014.100 30.0 25 7.6         156.43
2010-Sep-10 19:01:32 1013.700 26.2 30 7.3         156.43
2010-Sep-10 20:01:32 1013.800 23.4 33 6.1         156.43
2010-Sep-10 21:01:16 1014.300 19.9 44 7.2         156.43
2010-Sep-10 22:01:13 1014.900 18.2 53 8.4         156.43
2010-Sep-10 23:01:16 1015.100 15.3 60 7.6         156.43

Temperatura Máxima:31°    Temperatura Mínima:
Presión Máxima:1018.000 Hpa    Presión Mínima:1013.700 Hpa


Volver